Salvanguard — 9V6418 — position and weather

sailwx.info

Track history (hours):
 
Tides and Currents Weather Stations Pressure Air Temp Water Temp Dewpoint Dewpoint Depression Visibility Wind Speed Wind Dir Waves Ship Positions

Salvanguard

Last reported at 2017-Sep-05 13:54 UTC. Time now 2017-Sep-22 20:47 UTC.
Position N 31°59' E 031°32'.
Warning: this ship's position is 17 days out of date.

Length 75 m; draft 6.4 m.

Type: Tow > 200 m length. MMSI: 564533000.

Date/timePositionNaut miles runAvg speedWind from/ knotsBaromVisibWave heightAir tempDewpointWater temp
2017-Sep-05 13:54N 31°59' E 031°32'2 3.6
2017-Sep-05 13:26N 31°60' E 031°30'2 3.2
2017-Sep-05 12:53N 32°00' E 031°28'1 3.9
2017-Sep-05 12:31N 32°01' E 031°27'2 3.7
2017-Sep-05 12:00N 32°01' E 031°24'2 3.6
2017-Sep-05 11:30N 32°02' E 031°22'2 3.6
2017-Sep-05 11:00N 32°02' E 031°20'2 3.9
2017-Sep-05 10:28N 32°03' E 031°18'2 4.3
2017-Sep-05 09:59N 32°03' E 031°16'2 4.0
2017-Sep-05 09:31N 32°04' E 031°13'2 3.9
2017-Sep-05 08:57N 32°04' E 031°11'2 3.8
2017-Sep-05 08:31N 32°05' E 031°09'2 4.0
2017-Sep-05 08:01N 32°05' E 031°07'2 4.0
2017-Sep-05 07:30N 32°06' E 031°04'2 3.5
2017-Sep-05 07:01N 32°06' E 031°02'2 3.9
2017-Sep-05 06:31N 32°06' E 031°00'3 5.6
2017-Sep-05 06:00N 32°08' E 030°57'2 3.6
2017-Sep-05 05:30N 32°09' E 030°56'5 3.6
2017-Sep-05 04:14N 32°12' E 030°51'2 3.7
2017-Sep-05 03:48N 32°12' E 030°50'1 3.6
2017-Sep-05 03:31N 32°13' E 030°48'2 3.8
2017-Sep-05 03:00N 32°14' E 030°46'2 3.4
2017-Sep-05 02:28N 32°15' E 030°45'2 3.8
2017-Sep-05 01:54N 32°16' E 030°42'2 3.5
2017-Sep-05 01:14N 32°17' E 030°40'1 3.9
2017-Sep-05 00:59N 32°18' E 030°39'2 3.1
2017-Sep-05 00:30N 32°18' E 030°38'2 4.1
2017-Sep-05 00:01N 32°19' E 030°35'2 3.7
2017-Sep-04 23:25N 32°20' E 030°33'1 3.6
2017-Sep-04 23:01N 32°21' E 030°31'2 3.5
2017-Sep-04 22:31N 32°21' E 030°29'  
2017-Aug-30 20:19N 35°17' E 016°16'2 6.1
2017-Aug-30 19:58N 35°17' E 016°14'3 6.1
2017-Aug-30 19:27N 35°18' E 016°10'9 6.3
2017-Aug-30 18:02N 35°20' E 015°59'0 6.7
2017-Aug-30 18:00N 35°21' E 015°59'4 6.4
2017-Aug-30 17:19N 35°22' E 015°54'11 6.4
2017-Aug-30 15:38N 35°24' E 015°41'5 6.4
2017-Aug-30 14:54N 35°26' E 015°35'6 6.5
2017-Aug-30 14:02N 35°27' E 015°29'0 6.3
2017-Aug-30 13:59N 35°27' E 015°28'27 6.2
2017-Aug-30 09:36N 35°34' E 014°56'3 5.7
2017-Aug-30 09:09N 35°34' E 014°53'1 5.7
2017-Aug-30 08:57N 35°35' E 014°52'3 5.8
2017-Aug-30 08:30N 35°35' E 014°49'3 5.9
2017-Aug-30 08:00N 35°36' E 014°45'3 5.2
2017-Aug-30 07:29N 35°36' E 014°42'1 2.2
2017-Aug-30 07:00N 35°36' E 014°41'0 0.5
2017-Aug-30 06:31N 35°36' E 014°41'0 0.6
2017-Aug-30 06:00N 35°36' E 014°41'0 0.5
2017-Aug-30 05:30N 35°36' E 014°42'0 0.1
2017-Aug-30 05:00N 35°36' E 014°42'0 0.6
2017-Aug-30 04:31N 35°36' E 014°41'2 3.2
2017-Aug-30 04:01N 35°34' E 014°42'2 3.0
2017-Aug-30 03:31N 35°33' E 014°43'1 2.0
2017-Aug-30 02:59N 35°33' E 014°44'3 3.1
2017-Aug-30 01:56N 35°35' E 014°42'1 3.0
2017-Aug-30 01:30N 35°36' E 014°41'2 4.0
2017-Aug-30 01:01N 35°37' E 014°39'3 6.0
2017-Aug-30 00:30N 35°40' E 014°40'4 7.4
2017-Aug-30 00:00N 35°43' E 014°43'4 7.9
2017-Aug-29 23:30N 35°46' E 014°46'4 7.6
2017-Aug-29 23:00N 35°50' E 014°47'5 8.6
2017-Aug-29 22:27N 35°54' E 014°45'1 1.2
2017-Aug-29 21:59N 35°55' E 014°45'0 0.1
2017-Aug-29 21:29N 35°55' E 014°45'0 0.0
2017-Aug-29 20:59N 35°55' E 014°45'0 0.0
2017-Aug-29 20:29N 35°55' E 014°45'0 0.0
2017-Aug-29 19:59N 35°55' E 014°45'0 0.0
2017-Aug-29 19:29N 35°55' E 014°45'0 0.0
2017-Aug-29 18:59N 35°55' E 014°45'0 0.0
2017-Aug-29 18:29N 35°55' E 014°45'0 0.0
2017-Aug-29 17:59N 35°55' E 014°45'0 0.0
2017-Aug-29 17:29N 35°55' E 014°45'0 0.0
2017-Aug-29 16:59N 35°55' E 014°45'0 0.0
2017-Aug-29 16:29N 35°55' E 014°45'0 0.0
2017-Aug-29 15:59N 35°55' E 014°45'0 0.0
2017-Aug-29 15:17N 35°55' E 014°45'0 0.0
2017-Aug-29 15:00N 35°55' E 014°45'3 5.2
2017-Aug-29 14:30N 35°52' E 014°46'510.0
2017-Aug-29 14:00N 35°47' E 014°47'510.5
2017-Aug-29 13:29N 35°43' E 014°43'510.3
2017-Aug-29 13:00N 35°39' E 014°40'2 3.5
2017-Aug-29 12:30N 35°37' E 014°39'1 1.6
2017-Aug-29 12:00N 35°37' E 014°40'1 1.6
2017-Aug-29 11:30N 35°38' E 014°41'1 1.8
2017-Aug-29 11:00N 35°38' E 014°42'1 2.2
2017-Aug-29 10:30N 35°37' E 014°41'2 4.1
2017-Aug-29 09:59N 35°37' E 014°39'3 5.8
2017-Aug-29 09:30N 35°38' E 014°35'3 6.4
2017-Aug-29 09:00N 35°37' E 014°31'3 6.4
2017-Aug-29 08:30N 35°37' E 014°27'3 6.4
2017-Aug-29 08:00N 35°38' E 014°23'3 6.5
2017-Aug-29 07:30N 35°38' E 014°19'3 6.6
2017-Aug-29 07:00N 35°38' E 014°15'3 6.5
2017-Aug-29 06:30N 35°38' E 014°11'3 6.5
2017-Aug-29 06:00N 35°37' E 014°07'3 6.5
2017-Aug-29 05:30N 35°37' E 014°03'3 6.5
2017-Aug-29 05:00N 35°38' E 013°59'3 6.9
2017-Aug-29 04:30N 35°40' E 013°56'3 6.7
2017-Aug-29 04:00N 35°42' E 013°53'3 6.8
2017-Aug-29 03:30N 35°45' E 013°50'3 6.8
2017-Aug-29 03:01N 35°47' E 013°47'3 6.6
2017-Aug-29 02:31N 35°49' E 013°44'3 6.5
2017-Aug-29 02:00N 35°51' E 013°41'3 6.3
2017-Aug-29 01:30N 35°53' E 013°38'3 6.1
2017-Aug-29 01:00N 35°55' E 013°35'3 5.9
2017-Aug-29 00:30N 35°57' E 013°32'3 5.7
2017-Aug-29 00:00N 35°59' E 013°29'3 5.7
2017-Aug-28 23:30N 36°01' E 013°27'3 5.8
2017-Aug-28 23:00N 36°03' E 013°24'3 5.7
2017-Aug-28 22:30N 36°05' E 013°21'3 5.5
2017-Aug-28 22:00N 36°06' E 013°19'3 5.6
2017-Aug-28 21:30N 36°08' E 013°16'3 5.8
2017-Aug-28 21:00N 36°10' E 013°13'3 5.9
2017-Aug-28 20:30N 36°12' E 013°10'3 5.8
2017-Aug-28 20:00N 36°14' E 013°08'3 5.6
2017-Aug-28 19:30N 36°16' E 013°05'3 5.6
2017-Aug-28 19:00N 36°18' E 013°03'3 5.6
2017-Aug-28 18:31N 36°19' E 013°00'3 5.7
2017-Aug-28 18:00N 36°21' E 012°57'3 5.8
2017-Aug-28 17:30N 36°23' E 012°55'3 5.8
2017-Aug-28 17:00N 36°25' E 012°52'3 6.0
2017-Aug-28 16:30N 36°27' E 012°49'3 6.1
2017-Aug-28 16:00N 36°29' E 012°46'3 6.2
2017-Aug-28 15:30N 36°31' E 012°43'3 6.2
2017-Aug-28 15:00N 36°33' E 012°41'3 6.3
2017-Aug-28 14:30N 36°35' E 012°38'3 6.2
2017-Aug-28 14:00N 36°37' E 012°35'3 6.1
2017-Aug-28 13:31N 36°39' E 012°32'3 6.1
2017-Aug-28 13:01N 36°41' E 012°29'3 6.0
2017-Aug-28 12:30N 36°43' E 012°26'3 6.0
2017-Aug-28 12:00N 36°45' E 012°23'3 5.9
2017-Aug-28 11:30N 36°47' E 012°20'3 6.0
2017-Aug-28 11:01N 36°49' E 012°18'3 6.0
2017-Aug-28 10:31N 36°51' E 012°15'3 6.0
2017-Aug-28 10:00N 36°53' E 012°12'3 6.0
2017-Aug-28 09:30N 36°55' E 012°09'3 5.9
2017-Aug-28 09:00N 36°57' E 012°06'3 5.6
2017-Aug-28 08:25N 36°59' E 012°03'14 5.8
2017-Aug-28 05:59N 37°06' E 011°48'10 6.3
2017-Aug-28 04:21N 37°11' E 011°36'4 5.8
2017-Aug-28 03:41N 37°13' E 011°32'3 5.9
2017-Aug-28 03:13N 37°14' E 011°29'1 5.9
2017-Aug-28 02:59N 37°14' E 011°27'3 6.1
2017-Aug-28 02:30N 37°16' E 011°24'3 6.3
2017-Aug-28 01:58N 37°17' E 011°20'3 6.4
2017-Aug-28 01:27N 37°19' E 011°17'3 6.5
2017-Aug-28 00:58N 37°20' E 011°13'3 6.5
2017-Aug-28 00:30N 37°22' E 011°10'3 6.3
2017-Aug-28 00:00N 37°23' E 011°06'3 6.3
2017-Aug-27 23:31N 37°24' E 011°02'3 6.3
2017-Aug-27 23:00N 37°25' E 010°58'3 6.2
2017-Aug-27 22:30N 37°26' E 010°55'3 6.0
2017-Aug-27 22:00N 37°27' E 010°51'3 6.2
2017-Aug-27 21:31N 37°28' E 010°48'3 6.3
2017-Aug-27 21:00N 37°29' E 010°44'3 6.2
2017-Aug-27 20:30N 37°30' E 010°40'3 6.3
2017-Aug-27 20:00N 37°31' E 010°36'3 6.1
2017-Aug-27 19:30N 37°31' E 010°33'3 6.0
2017-Aug-27 19:01N 37°32' E 010°29'3 5.9
2017-Aug-27 18:30N 37°32' E 010°25'3 5.7
2017-Aug-27 18:00N 37°33' E 010°22'3 5.7
2017-Aug-27 17:31N 37°33' E 010°18'3 5.9
2017-Aug-27 17:01N 37°33' E 010°14'3 5.9
2017-Aug-27 16:30N 37°34' E 010°11'3 6.0
2017-Aug-27 16:00N 37°33' E 010°07'3 6.0
2017-Aug-27 15:30N 37°33' E 010°03'3 6.0
2017-Aug-27 15:01N 37°33' E 009°59'3 6.0
2017-Aug-27 14:30N 37°34' E 009°56'3 5.9
2017-Aug-27 14:01N 37°34' E 009°52'3 5.6
2017-Aug-27 13:30N 37°34' E 009°48'3 5.6
2017-Aug-27 13:00N 37°34' E 009°45'3 5.7
2017-Aug-27 12:30N 37°34' E 009°41'3 5.8
2017-Aug-27 12:01N 37°34' E 009°38'3 5.7
2017-Aug-27 11:30N 37°33' E 009°34'3 5.9
2017-Aug-27 11:00N 37°34' E 009°30'3 5.9
2017-Aug-27 10:30N 37°35' E 009°27'3 6.0
2017-Aug-27 10:00N 37°36' E 009°23'3 6.0
2017-Aug-27 09:30N 37°37' E 009°20'3 6.3
2017-Aug-27 09:00N 37°38' E 009°16'3 6.3
2017-Aug-27 08:30N 37°40' E 009°12'3 6.3
2017-Aug-27 08:00N 37°41' E 009°09'3 6.3
2017-Aug-27 07:30N 37°42' E 009°05'3 6.3
2017-Aug-27 07:00N 37°44' E 009°02'3 5.6
2017-Aug-27 06:30N 37°44' E 008°58'4 5.9
2017-Aug-27 05:44N 37°44' E 008°53'2 6.4
2017-Aug-27 05:29N 37°43' E 008°50'3 6.3
2017-Aug-27 04:58N 37°43' E 008°46'8 6.4
2017-Aug-27 03:45N 37°43' E 008°37'3 6.5
2017-Aug-27 03:21N 37°42' E 008°33'3 6.5
2017-Aug-27 02:49N 37°42' E 008°29'3 6.4
2017-Aug-27 02:23N 37°42' E 008°26'2 6.4
2017-Aug-27 02:00N 37°42' E 008°22'3 6.4
2017-Aug-27 01:30N 37°42' E 008°18'4 6.5
2017-Aug-27 00:56N 37°41' E 008°14'3 6.4
2017-Aug-27 00:29N 37°41' E 008°10'4 6.3
2017-Aug-26 23:52N 37°41' E 008°05'4 6.0
2017-Aug-26 23:14N 37°41' E 008°01'14 5.6
2017-Aug-26 20:45N 37°40' E 007°43'2 5.3
2017-Aug-26 20:27N 37°39' E 007°41'2 5.4
2017-Aug-26 20:00N 37°39' E 007°38'5 5.6
2017-Aug-26 19:08N 37°39' E 007°32'2 5.7
2017-Aug-26 18:46N 37°39' E 007°29'2 5.8
2017-Aug-26 18:30N 37°39' E 007°27'3 5.8
2017-Aug-26 18:00N 37°38' E 007°24'3 5.7
2017-Aug-26 17:30N 37°38' E 007°20'3 5.7
2017-Aug-26 17:00N 37°38' E 007°16'3 6.0
2017-Aug-26 16:30N 37°38' E 007°13'3 6.2
2017-Aug-26 16:00N 37°38' E 007°09'3 6.3
2017-Aug-26 15:30N 37°37' E 007°05'10 6.3
2017-Aug-26 13:59N 37°37' E 006°53'  
Track history (hours):
 
Tides and Currents Weather Stations Pressure Air Temp Water Temp Dewpoint Dewpoint Depression Visibility Wind Speed Wind Dir Waves Ship Positions

Salvanguard

Last reported at 2017-Sep-05 13:54 UTC. Time now 2017-Sep-22 20:47 UTC.
Position N 31°59' E 031°32'.
Warning: this ship's position is 17 days out of date.

Length 75 m; draft 6.4 m.

Type: Tow > 200 m length. MMSI: 564533000.

Date/timePositionNaut miles runAvg speedWind from/ knotsBaromVisibWave heightAir tempDewpointWater temp
2017-Sep-05 13:54N 31°59' E 031°32'2 3.6
2017-Sep-05 13:26N 31°60' E 031°30'2 3.2
2017-Sep-05 12:53N 32°00' E 031°28'1 3.9
2017-Sep-05 12:31N 32°01' E 031°27'2 3.7
2017-Sep-05 12:00N 32°01' E 031°24'2 3.6
2017-Sep-05 11:30N 32°02' E 031°22'2 3.6
2017-Sep-05 11:00N 32°02' E 031°20'2 3.9
2017-Sep-05 10:28N 32°03' E 031°18'2 4.3
2017-Sep-05 09:59N 32°03' E 031°16'2 4.0
2017-Sep-05 09:31N 32°04' E 031°13'2 3.9
2017-Sep-05 08:57N 32°04' E 031°11'2 3.8
2017-Sep-05 08:31N 32°05' E 031°09'2 4.0
2017-Sep-05 08:01N 32°05' E 031°07'2 4.0
2017-Sep-05 07:30N 32°06' E 031°04'2 3.5
2017-Sep-05 07:01N 32°06' E 031°02'2 3.9
2017-Sep-05 06:31N 32°06' E 031°00'3 5.6
2017-Sep-05 06:00N 32°08' E 030°57'2 3.6
2017-Sep-05 05:30N 32°09' E 030°56'5 3.6
2017-Sep-05 04:14N 32°12' E 030°51'2 3.7
2017-Sep-05 03:48N 32°12' E 030°50'1 3.6
2017-Sep-05 03:31N 32°13' E 030°48'2 3.8
2017-Sep-05 03:00N 32°14' E 030°46'2 3.4
2017-Sep-05 02:28N 32°15' E 030°45'2 3.8
2017-Sep-05 01:54N 32°16' E 030°42'2 3.5
2017-Sep-05 01:14N 32°17' E 030°40'1 3.9
2017-Sep-05 00:59N 32°18' E 030°39'2 3.1
2017-Sep-05 00:30N 32°18' E 030°38'2 4.1
2017-Sep-05 00:01N 32°19' E 030°35'2 3.7
2017-Sep-04 23:25N 32°20' E 030°33'1 3.6
2017-Sep-04 23:01N 32°21' E 030°31'2 3.5
2017-Sep-04 22:31N 32°21' E 030°29'  
2017-Aug-30 20:19N 35°17' E 016°16'2 6.1
2017-Aug-30 19:58N 35°17' E 016°14'3 6.1
2017-Aug-30 19:27N 35°18' E 016°10'9 6.3
2017-Aug-30 18:02N 35°20' E 015°59'0 6.7
2017-Aug-30 18:00N 35°21' E 015°59'4 6.4
2017-Aug-30 17:19N 35°22' E 015°54'11 6.4
2017-Aug-30 15:38N 35°24' E 015°41'5 6.4
2017-Aug-30 14:54N 35°26' E 015°35'6 6.5
2017-Aug-30 14:02N 35°27' E 015°29'0 6.3
2017-Aug-30 13:59N 35°27' E 015°28'27 6.2
2017-Aug-30 09:36N 35°34' E 014°56'3 5.7
2017-Aug-30 09:09N 35°34' E 014°53'1 5.7
2017-Aug-30 08:57N 35°35' E 014°52'3 5.8
2017-Aug-30 08:30N 35°35' E 014°49'3 5.9
2017-Aug-30 08:00N 35°36' E 014°45'3 5.2
2017-Aug-30 07:29N 35°36' E 014°42'1 2.2
2017-Aug-30 07:00N 35°36' E 014°41'0 0.5
2017-Aug-30 06:31N 35°36' E 014°41'0 0.6
2017-Aug-30 06:00N 35°36' E 014°41'0 0.5
2017-Aug-30 05:30N 35°36' E 014°42'0 0.1
2017-Aug-30 05:00N 35°36' E 014°42'0 0.6
2017-Aug-30 04:31N 35°36' E 014°41'2 3.2
2017-Aug-30 04:01N 35°34' E 014°42'2 3.0
2017-Aug-30 03:31N 35°33' E 014°43'1 2.0
2017-Aug-30 02:59N 35°33' E 014°44'3 3.1
2017-Aug-30 01:56N 35°35' E 014°42'1 3.0
2017-Aug-30 01:30N 35°36' E 014°41'2 4.0
2017-Aug-30 01:01N 35°37' E 014°39'3 6.0
2017-Aug-30 00:30N 35°40' E 014°40'4 7.4
2017-Aug-30 00:00N 35°43' E 014°43'4 7.9
2017-Aug-29 23:30N 35°46' E 014°46'4 7.6
2017-Aug-29 23:00N 35°50' E 014°47'5 8.6
2017-Aug-29 22:27N 35°54' E 014°45'1 1.2
2017-Aug-29 21:59N 35°55' E 014°45'0 0.1
2017-Aug-29 21:29N 35°55' E 014°45'0 0.0
2017-Aug-29 20:59N 35°55' E 014°45'0 0.0
2017-Aug-29 20:29N 35°55' E 014°45'0 0.0
2017-Aug-29 19:59N 35°55' E 014°45'0 0.0
2017-Aug-29 19:29N 35°55' E 014°45'0 0.0
2017-Aug-29 18:59N 35°55' E 014°45'0 0.0
2017-Aug-29 18:29N 35°55' E 014°45'0 0.0
2017-Aug-29 17:59N 35°55' E 014°45'0 0.0
2017-Aug-29 17:29N 35°55' E 014°45'0 0.0
2017-Aug-29 16:59N 35°55' E 014°45'0 0.0
2017-Aug-29 16:29N 35°55' E 014°45'0 0.0
2017-Aug-29 15:59N 35°55' E 014°45'0 0.0
2017-Aug-29 15:17N 35°55' E 014°45'0 0.0
2017-Aug-29 15:00N 35°55' E 014°45'3 5.2
2017-Aug-29 14:30N 35°52' E 014°46'510.0
2017-Aug-29 14:00N 35°47' E 014°47'510.5
2017-Aug-29 13:29N 35°43' E 014°43'510.3
2017-Aug-29 13:00N 35°39' E 014°40'2 3.5
2017-Aug-29 12:30N 35°37' E 014°39'1 1.6
2017-Aug-29 12:00N 35°37' E 014°40'1 1.6
2017-Aug-29 11:30N 35°38' E 014°41'1 1.8
2017-Aug-29 11:00N 35°38' E 014°42'1 2.2
2017-Aug-29 10:30N 35°37' E 014°41'2 4.1
2017-Aug-29 09:59N 35°37' E 014°39'3 5.8
2017-Aug-29 09:30N 35°38' E 014°35'3 6.4
2017-Aug-29 09:00N 35°37' E 014°31'3 6.4
2017-Aug-29 08:30N 35°37' E 014°27'3 6.4
2017-Aug-29 08:00N 35°38' E 014°23'3 6.5
2017-Aug-29 07:30N 35°38' E 014°19'3 6.6
2017-Aug-29 07:00N 35°38' E 014°15'3 6.5
2017-Aug-29 06:30N 35°38' E 014°11'3 6.5
2017-Aug-29 06:00N 35°37' E 014°07'3 6.5
2017-Aug-29 05:30N 35°37' E 014°03'3 6.5
2017-Aug-29 05:00N 35°38' E 013°59'3 6.9
2017-Aug-29 04:30N 35°40' E 013°56'3 6.7
2017-Aug-29 04:00N 35°42' E 013°53'3 6.8
2017-Aug-29 03:30N 35°45' E 013°50'3 6.8
2017-Aug-29 03:01N 35°47' E 013°47'3 6.6
2017-Aug-29 02:31N 35°49' E 013°44'3 6.5
2017-Aug-29 02:00N 35°51' E 013°41'3 6.3
2017-Aug-29 01:30N 35°53' E 013°38'3 6.1
2017-Aug-29 01:00N 35°55' E 013°35'3 5.9
2017-Aug-29 00:30N 35°57' E 013°32'3 5.7
2017-Aug-29 00:00N 35°59' E 013°29'3 5.7
2017-Aug-28 23:30N 36°01' E 013°27'3 5.8
2017-Aug-28 23:00N 36°03' E 013°24'3 5.7
2017-Aug-28 22:30N 36°05' E 013°21'3 5.5
2017-Aug-28 22:00N 36°06' E 013°19'3 5.6
2017-Aug-28 21:30N 36°08' E 013°16'3 5.8
2017-Aug-28 21:00N 36°10' E 013°13'3 5.9
2017-Aug-28 20:30N 36°12' E 013°10'3 5.8
2017-Aug-28 20:00N 36°14' E 013°08'3 5.6
2017-Aug-28 19:30N 36°16' E 013°05'3 5.6
2017-Aug-28 19:00N 36°18' E 013°03'3 5.6
2017-Aug-28 18:31N 36°19' E 013°00'3 5.7
2017-Aug-28 18:00N 36°21' E 012°57'3 5.8
2017-Aug-28 17:30N 36°23' E 012°55'3 5.8
2017-Aug-28 17:00N 36°25' E 012°52'3 6.0
2017-Aug-28 16:30N 36°27' E 012°49'3 6.1
2017-Aug-28 16:00N 36°29' E 012°46'3 6.2
2017-Aug-28 15:30N 36°31' E 012°43'3 6.2
2017-Aug-28 15:00N 36°33' E 012°41'3 6.3
2017-Aug-28 14:30N 36°35' E 012°38'3 6.2
2017-Aug-28 14:00N 36°37' E 012°35'3 6.1
2017-Aug-28 13:31N 36°39' E 012°32'3 6.1
2017-Aug-28 13:01N 36°41' E 012°29'3 6.0
2017-Aug-28 12:30N 36°43' E 012°26'3 6.0
2017-Aug-28 12:00N 36°45' E 012°23'3 5.9
2017-Aug-28 11:30N 36°47' E 012°20'3 6.0
2017-Aug-28 11:01N 36°49' E 012°18'3 6.0
2017-Aug-28 10:31N 36°51' E 012°15'3 6.0
2017-Aug-28 10:00N 36°53' E 012°12'3 6.0
2017-Aug-28 09:30N 36°55' E 012°09'3 5.9
2017-Aug-28 09:00N 36°57' E 012°06'3 5.6
2017-Aug-28 08:25N 36°59' E 012°03'14 5.8
2017-Aug-28 05:59N 37°06' E 011°48'10 6.3
2017-Aug-28 04:21N 37°11' E 011°36'4 5.8
2017-Aug-28 03:41N 37°13' E 011°32'3 5.9
2017-Aug-28 03:13N 37°14' E 011°29'1 5.9
2017-Aug-28 02:59N 37°14' E 011°27'3 6.1
2017-Aug-28 02:30N 37°16' E 011°24'3 6.3
2017-Aug-28 01:58N 37°17' E 011°20'3 6.4
2017-Aug-28 01:27N 37°19' E 011°17'3 6.5
2017-Aug-28 00:58N 37°20' E 011°13'3 6.5
2017-Aug-28 00:30N 37°22' E 011°10'3 6.3
2017-Aug-28 00:00N 37°23' E 011°06'3 6.3
2017-Aug-27 23:31N 37°24' E 011°02'3 6.3
2017-Aug-27 23:00N 37°25' E 010°58'3 6.2
2017-Aug-27 22:30N 37°26' E 010°55'3 6.0
2017-Aug-27 22:00N 37°27' E 010°51'3 6.2
2017-Aug-27 21:31N 37°28' E 010°48'3 6.3
2017-Aug-27 21:00N 37°29' E 010°44'3 6.2
2017-Aug-27 20:30N 37°30' E 010°40'3 6.3
2017-Aug-27 20:00N 37°31' E 010°36'3 6.1
2017-Aug-27 19:30N 37°31' E 010°33'3 6.0
2017-Aug-27 19:01N 37°32' E 010°29'3 5.9
2017-Aug-27 18:30N 37°32' E 010°25'3 5.7
2017-Aug-27 18:00N 37°33' E 010°22'3 5.7
2017-Aug-27 17:31N 37°33' E 010°18'3 5.9
2017-Aug-27 17:01N 37°33' E 010°14'3 5.9
2017-Aug-27 16:30N 37°34' E 010°11'3 6.0
2017-Aug-27 16:00N 37°33' E 010°07'3 6.0
2017-Aug-27 15:30N 37°33' E 010°03'3 6.0
2017-Aug-27 15:01N 37°33' E 009°59'3 6.0
2017-Aug-27 14:30N 37°34' E 009°56'3 5.9
2017-Aug-27 14:01N 37°34' E 009°52'3 5.6
2017-Aug-27 13:30N 37°34' E 009°48'3 5.6
2017-Aug-27 13:00N 37°34' E 009°45'3 5.7
2017-Aug-27 12:30N 37°34' E 009°41'3 5.8
2017-Aug-27 12:01N 37°34' E 009°38'3 5.7
2017-Aug-27 11:30N 37°33' E 009°34'3 5.9
2017-Aug-27 11:00N 37°34' E 009°30'3 5.9
2017-Aug-27 10:30N 37°35' E 009°27'3 6.0
2017-Aug-27 10:00N 37°36' E 009°23'3 6.0
2017-Aug-27 09:30N 37°37' E 009°20'3 6.3
2017-Aug-27 09:00N 37°38' E 009°16'3 6.3
2017-Aug-27 08:30N 37°40' E 009°12'3 6.3
2017-Aug-27 08:00N 37°41' E 009°09'3 6.3
2017-Aug-27 07:30N 37°42' E 009°05'3 6.3
2017-Aug-27 07:00N 37°44' E 009°02'3 5.6
2017-Aug-27 06:30N 37°44' E 008°58'4 5.9
2017-Aug-27 05:44N 37°44' E 008°53'2 6.4
2017-Aug-27 05:29N 37°43' E 008°50'3 6.3
2017-Aug-27 04:58N 37°43' E 008°46'8 6.4
2017-Aug-27 03:45N 37°43' E 008°37'3 6.5
2017-Aug-27 03:21N 37°42' E 008°33'3 6.5
2017-Aug-27 02:49N 37°42' E 008°29'3 6.4
2017-Aug-27 02:23N 37°42' E 008°26'2 6.4
2017-Aug-27 02:00N 37°42' E 008°22'3 6.4
2017-Aug-27 01:30N 37°42' E 008°18'4 6.5
2017-Aug-27 00:56N 37°41' E 008°14'3 6.4
2017-Aug-27 00:29N 37°41' E 008°10'4 6.3
2017-Aug-26 23:52N 37°41' E 008°05'4 6.0
2017-Aug-26 23:14N 37°41' E 008°01'14 5.6
2017-Aug-26 20:45N 37°40' E 007°43'2 5.3
2017-Aug-26 20:27N 37°39' E 007°41'2 5.4
2017-Aug-26 20:00N 37°39' E 007°38'5 5.6
2017-Aug-26 19:08N 37°39' E 007°32'2 5.7
2017-Aug-26 18:46N 37°39' E 007°29'2 5.8
2017-Aug-26 18:30N 37°39' E 007°27'3 5.8
2017-Aug-26 18:00N 37°38' E 007°24'3 5.7
2017-Aug-26 17:30N 37°38' E 007°20'3 5.7
2017-Aug-26 17:00N 37°38' E 007°16'3 6.0
2017-Aug-26 16:30N 37°38' E 007°13'3 6.2
2017-Aug-26 16:00N 37°38' E 007°09'3 6.3
2017-Aug-26 15:30N 37°37' E 007°05'10 6.3
2017-Aug-26 13:59N 37°37' E 006°53'  

Dump ship's entire track history